Time;durP1;ratioP1;P1;durP2;ratioP2;P2;SDS_P1;SDS_P2;PMS_P1;PMS_P2;Temp;Humidity;BMP_temperature;BMP_pressure;BME280_temperature;BME280_humidity;BME280_pressure;Samples;Min_cycle;Max_cycle;Signal;HPM_P1;HPM_P2
2021/03/14 00:00:07;;;;;;;10.57;3.03;;;;;;;10.86;58.71;98506.78;5105186;28;20295;-52
2021/03/14 00:02:33;;;;;;;11.17;1.73;;;;;;;11.22;57.25;98512.09;5090931;28;20477;-50
2021/03/14 00:05:03;;;;;;;5.37;2.20;;;;;;;11.35;57.92;98507.84;5093032;28;20466;-48
2021/03/14 00:07:30;;;;;;;10.00;2.43;;;;;;;10.98;57.94;98523.19;5084276;28;20937;-49
2021/03/14 00:09:57;;;;;;;15.90;3.70;;;;;;;11.46;57.12;98526.81;5106736;28;20468;-51
2021/03/14 00:12:23;;;;;;;9.70;3.33;;;;;;;11.42;57.19;98537.97;5092082;28;20439;-51
2021/03/14 00:14:50;;;;;;;6.93;2.33;;;;;;;10.89;58.65;98537.78;5094293;28;20463;-51
2021/03/14 00:17:18;;;;;;;10.30;2.63;;;;;;;11.48;57.79;98535.41;5093566;28;20822;-53
2021/03/14 00:19:44;;;;;;;17.30;3.40;;;;;;;11.54;57.35;98538.88;5094673;28;20984;-50
2021/03/14 00:22:12;;;;;;;8.70;1.50;;;;;;;11.52;57.61;98556.06;5085155;28;20501;-52
2021/03/14 00:24:39;;;;;;;12.80;3.23;;;;;;;11.42;58.14;98560.34;5108353;28;20749;-52
2021/03/14 00:27:06;;;;;;;15.97;3.57;;;;;;;11.59;57.29;98573.31;5087587;28;20803;-48
2021/03/14 00:29:32;;;;;;;11.70;1.77;;;;;;;11.49;58.04;98580.19;5094938;28;20532;-50
2021/03/14 00:32:01;;;;;;;15.40;3.30;;;;;;;11.54;57.87;98585.34;5093762;28;20827;-53
2021/03/14 00:34:29;;;;;;;5.13;2.00;;;;;;;11.74;56.89;98596.59;5094171;28;20221;-48
2021/03/14 00:36:56;;;;;;;9.97;2.90;;;;;;;11.38;58.16;98590.44;5082699;28;20549;-55
2021/03/14 00:39:24;;;;;;;18.60;3.03;;;;;;;11.29;57.68;98611.06;5094871;28;20479;-50
2021/03/14 00:41:51;;;;;;;16.27;2.53;;;;;;;11.40;57.53;98617.16;5094777;28;20463;-51
2021/03/14 00:44:18;;;;;;;12.00;3.07;;;;;;;11.69;57.15;98626.72;5089233;28;20475;-51
2021/03/14 00:46:44;;;;;;;4.47;1.30;;;;;;;11.70;56.91;98641.34;5094934;28;20436;-51
2021/03/14 00:49:16;;;;;;;10.60;2.10;;;;;;;11.81;56.90;98640.53;5068743;28;20805;-52
2021/03/14 00:51:42;;;;;;;9.93;2.50;;;;;;;11.68;56.73;98650.81;5094917;28;20454;-49
2021/03/14 00:54:09;;;;;;;7.73;1.17;;;;;;;11.27;57.39;98664.44;5080493;28;20540;-48
2021/03/14 00:56:37;;;;;;;5.60;1.53;;;;;;;12.24;56.11;98666.50;5094114;28;20556;-53
2021/03/14 00:59:07;;;;;;;2.22;0.80;;;;;;;12.10;56.15;98678.56;5094369;28;20825;-49
2021/03/14 01:01:34;;;;;;;7.60;2.40;;;;;;;12.42;54.57;98680.31;5096004;28;20228;-51
2021/03/14 01:04:01;;;;;;;6.80;1.80;;;;;;;11.54;56.44;98698.97;5092626;28;20561;-50
2021/03/14 01:06:27;;;;;;;7.50;1.80;;;;;;;12.66;54.57;98705.34;5098118;28;20447;-52
2021/03/14 01:08:54;;;;;;;5.10;1.87;;;;;;;12.22;55.30;98707.00;5073547;28;20480;-53
2021/03/14 01:11:20;;;;;;;4.30;1.50;;;;;;;12.08;56.18;98706.97;5097164;28;20561;-54
2021/03/14 01:13:48;;;;;;;5.83;2.50;;;;;;;11.73;56.67;98720.56;5095111;28;20485;-48
2021/03/14 01:16:14;;;;;;;7.27;2.17;;;;;;;12.03;55.86;98729.31;5098010;28;20458;-53
2021/03/14 01:18:51;;;;;;;4.83;1.77;;;;;;;12.18;55.53;98733.72;5092356;28;20460;-49
2021/03/14 01:21:18;;;;;;;6.17;2.03;;;;;;;12.61;55.17;98738.09;5097785;28;20757;-53
2021/03/14 01:23:45;;;;;;;13.73;2.00;;;;;;;12.41;55.35;98741.50;5096291;28;20543;-53
2021/03/14 01:26:11;;;;;;;2.97;1.00;;;;;;;12.23;55.54;98751.81;5097803;28;20823;-49
2021/03/14 01:28:38;;;;;;;3.33;1.73;;;;;;;12.47;55.18;98751.03;5073273;28;20480;-50
2021/03/14 01:31:05;;;;;;;12.10;2.93;;;;;;;12.58;54.99;98761.38;5097778;28;20432;-52
2021/03/14 01:33:32;;;;;;;5.63;2.80;;;;;;;12.56;54.84;98750.16;5088850;28;20447;-51
2021/03/14 01:35:59;;;;;;;13.03;3.77;;;;;;;12.81;54.21;98771.75;5102703;28;20466;-49
2021/03/14 01:38:25;;;;;;;13.03;3.10;;;;;;;12.41;54.98;98771.69;5073228;28;20524;-54
2021/03/14 01:40:52;;;;;;;14.13;2.87;;;;;;;12.84;55.18;98773.47;5103210;28;20437;-51
2021/03/14 01:43:19;;;;;;;10.00;2.60;;;;;;;12.93;54.10;98775.22;5072952;27;20500;-53
2021/03/14 01:45:46;;;;;;;10.57;2.30;;;;;;;12.99;54.58;98775.22;5097118;28;20458;-51
2021/03/14 01:48:18;;;;;;;9.33;2.73;;;;;;;12.41;55.89;98787.22;5088052;28;20855;-52
2021/03/14 01:50:45;;;;;;;6.77;1.73;;;;;;;11.88;57.05;98782.69;5097118;28;20437;-52
2021/03/14 01:53:12;;;;;;;12.73;4.33;;;;;;;12.02;57.21;98792.22;5087944;28;20458;-51
2021/03/14 01:55:40;;;;;;;14.77;2.80;;;;;;;12.04;56.57;98797.41;5088956;28;20474;-51
2021/03/14 01:58:06;;;;;;;3.90;2.10;;;;;;;11.72;57.17;98802.41;5095381;28;20482;-52
2021/03/14 02:00:33;;;;;;;9.53;3.23;;;;;;;11.77;56.41;98814.47;5097265;28;20496;-55
2021/03/14 02:03:00;;;;;;;13.13;2.70;;;;;;;11.91;55.87;98819.72;5073676;28;20452;-49
2021/03/14 02:05:28;;;;;;;4.13;2.33;;;;;;;11.17;57.21;98821.81;5096922;28;20443;-52
2021/03/14 02:07:55;;;;;;;7.70;3.33;;;;;;;11.92;56.07;98824.91;5095504;28;20492;-54
2021/03/14 02:10:24;;;;;;;7.70;3.27;;;;;;;11.57;56.88;98825.53;5097178;28;20853;-55
2021/03/14 02:12:53;;;;;;;13.82;3.28;;;;;;;11.68;56.22;98841.97;5081794;28;20830;-48
2021/03/14 02:15:21;;;;;;;5.68;2.47;;;;;;;11.60;56.18;98831.59;5106879;28;20200;-52
2021/03/14 02:17:48;;;;;;;5.72;2.70;;;;;;;11.76;55.70;98834.28;5091530;28;20238;-53
2021/03/14 02:20:18;;;;;;;6.63;2.85;;;;;;;11.51;56.58;98849.59;5096813;28;20231;-49
2021/03/14 02:22:48;;;;;;;14.40;3.47;;;;;;;11.13;57.85;98863.91;5085829;28;20312;-49
2021/03/14 02:25:18;;;;;;;10.73;4.20;;;;;;;11.36;57.02;98860.69;5096418;28;20558;-51
2021/03/14 02:27:46;;;;;;;11.77;3.95;;;;;;;11.64;56.18;98855.72;5085652;28;20553;-50
2021/03/14 02:30:13;;;;;;;11.93;3.47;;;;;;;11.47;56.66;98874.53;5107385;28;20289;-54
2021/03/14 02:32:41;;;;;;;11.23;3.50;;;;;;;11.26;56.54;98889.84;5086740;28;20844;-51
2021/03/14 02:35:10;;;;;;;11.90;4.30;;;;;;;11.66;56.13;98881.56;5108446;28;20466;-48
2021/03/14 02:37:37;;;;;;;12.77;3.95;;;;;;;11.91;55.36;98894.66;5095450;28;20452;-53
2021/03/14 02:40:06;;;;;;;14.33;4.67;;;;;;;12.04;55.05;98899.06;5096267;28;20218;-53
2021/03/14 02:42:35;;;;;;;10.60;3.42;;;;;;;11.75;55.37;98895.41;5086935;28;20473;-54
2021/03/14 02:45:04;;;;;;;10.47;4.23;;;;;;;12.04;54.73;98905.97;5096681;28;20534;-51
2021/03/14 02:47:31;;;;;;;18.90;5.57;;;;;;;12.14;54.40;98907.75;5090657;28;20458;-50
2021/03/14 02:50:04;;;;;;;19.13;4.55;;;;;;;12.52;54.05;98917.41;5096604;28;20553;-54
2021/03/14 02:52:31;;;;;;;11.47;4.57;;;;;;;12.07;54.57;98906.84;5080122;28;20273;-50
2021/03/14 02:54:58;;;;;;;16.87;4.63;;;;;;;12.06;53.88;98925.81;5094831;28;20469;-52
2021/03/14 02:57:26;;;;;;;12.10;4.80;;;;;;;13.02;52.52;98920.16;5075498;28;20467;-53
2021/03/14 02:59:54;;;;;;;16.80;6.20;;;;;;;12.39;53.43;98933.72;5076138;28;20753;-53
2021/03/14 03:02:22;;;;;;;15.50;6.27;;;;;;;11.86;54.76;98942.00;5074818;28;20737;-52
2021/03/14 03:04:49;;;;;;;25.10;6.53;;;;;;;12.08;54.66;98944.78;5075737;28;20524;-55
2021/03/14 03:07:17;;;;;;;19.67;4.63;;;;;;;11.95;54.88;98951.53;5075151;28;20430;-51
2021/03/14 03:09:46;;;;;;;8.23;2.50;;;;;;;11.55;55.50;98959.84;5075858;28;20486;-50
2021/03/14 03:12:13;;;;;;;9.90;3.53;;;;;;;11.51;55.28;98975.28;5076562;28;20422;-51
2021/03/14 03:14:42;;;;;;;10.90;3.57;;;;;;;11.40;55.22;98959.69;5075545;28;20488;-54
2021/03/14 03:17:08;;;;;;;13.20;4.63;;;;;;;11.88;54.36;98978.19;5075831;28;20826;-55
2021/03/14 03:19:36;;;;;;;19.03;4.40;;;;;;;11.53;54.32;98992.53;5060706;28;20488;-49
2021/03/14 03:22:04;;;;;;;9.90;3.77;;;;;;;11.31;54.63;98988.84;5068381;28;20540;-56
2021/03/14 03:24:31;;;;;;;12.40;4.40;;;;;;;11.26;54.39;99008.59;5074746;28;20490;-50
2021/03/14 03:26:58;;;;;;;12.80;4.40;;;;;;;11.66;54.28;99002.97;5075751;28;20516;-55
2021/03/14 03:29:24;;;;;;;15.83;3.63;;;;;;;11.96;53.26;99001.50;5065126;28;20573;-52
2021/03/14 03:31:51;;;;;;;16.33;5.30;;;;;;;12.10;52.62;99014.59;5075477;28;20435;-53
2021/03/14 03:34:18;;;;;;;16.23;4.70;;;;;;;12.23;52.27;99015.53;5054653;28;20493;-53
2021/03/14 03:36:45;;;;;;;22.70;4.47;;;;;;;11.88;53.13;99014.38;5095890;28;20206;-53
2021/03/14 03:39:13;;;;;;;13.52;3.15;;;;;;;12.01;52.85;99021.34;5101128;28;20492;-55
2021/03/14 03:41:46;;;;;;;14.07;4.60;;;;;;;12.50;52.52;99030.38;5095793;28;20196;-51
2021/03/14 03:44:12;;;;;;;12.10;3.93;;;;;;;12.01;52.60;99030.84;5085730;28;20581;-51
2021/03/14 03:46:40;;;;;;;16.80;3.63;;;;;;;11.27;53.45;99036.16;5095957;28;20439;-53
2021/03/14 03:49:08;;;;;;;8.90;3.60;;;;;;;12.17;52.72;99039.63;5083507;28;20486;-51
2021/03/14 03:51:35;;;;;;;13.03;4.10;;;;;;;11.97;52.91;99029.97;5095623;28;20433;-52
2021/03/14 03:54:05;;;;;;;9.20;3.95;;;;;;;12.12;52.22;99043.88;5084613;28;20482;-57
2021/03/14 03:56:32;;;;;;;18.13;5.30;;;;;;;12.89;51.04;99050.41;5095491;28;20290;-55
2021/03/14 03:59:00;;;;;;;12.37;4.23;;;;;;;12.52;51.31;99059.69;5092168;28;20781;-56
2021/03/14 04:01:27;;;;;;;8.98;3.28;;;;;;;12.08;52.26;99057.63;5084102;28;20778;-52
2021/03/14 04:03:54;;;;;;;29.40;6.07;;;;;;;12.46;51.98;99074.31;5066264;28;20230;-52
2021/03/14 04:06:25;;;;;;;14.33;4.30;;;;;;;12.42;51.52;99079.44;5058046;28;20239;-52
2021/03/14 04:08:52;;;;;;;12.07;4.80;;;;;;;12.29;51.66;99082.78;5071075;28;20458;-51
2021/03/14 04:11:20;;;;;;;7.10;3.00;;;;;;;12.67;50.93;99092.56;5083253;28;20467;-52
2021/03/14 04:13:47;;;;;;;11.60;3.47;;;;;;;12.07;51.03;99099.84;5091419;28;20562;-54
2021/03/14 04:16:15;;;;;;;18.17;2.80;;;;;;;12.21;51.50;99102.56;5094824;28;20208;-51
2021/03/14 04:18:43;;;;;;;10.73;4.13;;;;;;;12.32;51.31;99100.06;5076721;28;20520;-53
2021/03/14 04:21:14;;;;;;;11.40;3.67;;;;;;;12.08;50.98;99120.56;5094177;28;20462;-55
2021/03/14 04:23:43;;;;;;;19.90;5.30;;;;;;;12.65;50.39;99122.75;5093438;28;20523;-54
2021/03/14 04:26:10;;;;;;;15.03;3.60;;;;;;;12.31;51.35;99132.78;5094713;28;20454;-52
2021/03/14 04:28:38;;;;;;;10.30;3.20;;;;;;;12.21;51.24;99133.59;5090401;28;20480;-52
2021/03/14 04:31:05;;;;;;;10.87;2.93;;;;;;;12.36;51.40;99149.22;5094842;28;20449;-52
2021/03/14 04:33:32;;;;;;;20.77;3.17;;;;;;;12.24;51.49;99160.34;5088396;27;20713;-50
2021/03/14 04:35:59;;;;;;;10.03;3.33;;;;;;;13.12;50.11;99163.59;5099027;28;20774;-53
2021/03/14 04:38:27;;;;;;;11.70;3.10;;;;;;;12.43;50.67;99152.75;5071453;28;20477;-55
2021/03/14 04:40:54;;;;;;;6.97;2.10;;;;;;;12.21;52.07;99160.28;5082476;28;20451;-50
2021/03/14 04:43:22;;;;;;;14.67;3.57;;;;;;;12.22;51.24;99179.28;5064997;28;20487;-51
2021/03/14 04:45:50;;;;;;;13.50;3.13;;;;;;;12.33;50.73;99175.06;5074784;28;20460;-54
2021/03/14 04:48:18;;;;;;;18.87;4.07;;;;;;;12.48;50.37;99187.28;5072507;28;21000;-58
2021/03/14 04:50:45;;;;;;;15.82;2.33;;;;;;;11.96;51.65;99203.97;5074485;28;20445;-50
2021/03/14 04:53:12;;;;;;;9.67;2.70;;;;;;;12.45;51.24;99196.75;5065097;28;20237;-50
2021/03/14 04:55:40;;;;;;;12.17;4.00;;;;;;;12.58;50.54;99205.47;5074324;28;20429;-57
2021/03/14 04:58:07;;;;;;;10.40;2.40;;;;;;;12.17;51.15;99223.19;5060447;28;20545;-50
2021/03/14 05:00:34;;;;;;;17.50;3.07;;;;;;;12.35;50.72;99224.22;5074325;28;20435;-54
2021/03/14 05:03:02;;;;;;;9.90;3.03;;;;;;;12.40;50.71;99230.28;5071176;28;20481;-51
2021/03/14 05:05:29;;;;;;;13.40;3.50;;;;;;;12.13;50.84;99242.09;5092115;28;20436;-54
2021/03/14 05:07:56;;;;;;;18.50;4.50;;;;;;;12.65;50.93;99252.09;5086770;28;20553;-57
2021/03/14 05:10:24;;;;;;;10.70;3.07;;;;;;;12.05;51.45;99244.59;5096127;28;20458;-51
2021/03/14 05:12:52;;;;;;;11.60;3.07;;;;;;;12.54;50.69;99258.91;5065925;28;20482;-55
2021/03/14 05:15:20;;;;;;;22.63;3.47;;;;;;;12.91;49.79;99268.69;5097686;28;20536;-55
2021/03/14 05:17:48;;;;;;;18.70;3.90;;;;;;;12.87;49.24;99277.31;5079541;28;20929;-54
2021/03/14 05:20:18;;;;;;;23.97;4.57;;;;;;;12.49;50.43;99283.84;5109287;28;20895;-57
2021/03/14 05:22:45;;;;;;;12.40;4.40;;;;;;;13.29;49.30;99286.28;5071774;28;20460;-55
2021/03/14 05:25:14;;;;;;;17.53;3.47;;;;;;;12.78;49.87;99294.47;5085758;28;20505;-51
2021/03/14 05:27:42;;;;;;;17.67;3.67;;;;;;;13.66;48.39;99289.97;5048263;28;20494;-52
2021/03/14 05:30:11;;;;;;;19.63;5.57;;;;;;;13.44;47.85;99301.03;5073783;28;20520;-59
2021/03/14 05:32:37;;;;;;;10.90;3.37;;;;;;;13.30;48.53;99306.16;5050447;28;20534;-56
2021/03/14 05:35:05;;;;;;;14.23;3.03;;;;;;;12.71;49.60;99300.44;5072711;28;20444;-53
2021/03/14 05:37:32;;;;;;;13.37;3.60;;;;;;;12.99;48.82;99316.25;5071600;28;20480;-55
2021/03/14 05:39:59;;;;;;;14.33;3.60;;;;;;;12.90;49.23;99311.84;5073944;28;20477;-54
2021/03/14 05:42:26;;;;;;;13.00;3.70;;;;;;;13.29;48.31;99326.84;5070923;28;20478;-53
2021/03/14 05:44:53;;;;;;;13.23;3.00;;;;;;;13.81;47.41;99323.78;5073399;28;20463;-55
2021/03/14 05:47:20;;;;;;;25.10;3.77;;;;;;;13.62;47.08;99336.63;5070123;28;20470;-54
2021/03/14 05:49:47;;;;;;;13.23;3.70;;;;;;;13.36;48.10;99337.28;5073608;28;20950;-55
2021/03/14 05:52:19;;;;;;;17.30;4.20;;;;;;;13.56;47.55;99339.16;5059132;28;20550;-55
2021/03/14 05:54:48;;;;;;;13.77;3.60;;;;;;;13.63;47.78;99342.66;5071854;28;20494;-56
2021/03/14 05:57:17;;;;;;;13.00;3.50;;;;;;;13.59;48.09;99346.94;5068843;28;20955;-56
2021/03/14 05:59:45;;;;;;;10.90;3.57;;;;;;;12.90;48.70;99366.22;5073543;28;20461;-56
2021/03/14 06:02:12;;;;;;;10.67;3.40;;;;;;;13.15;48.40;99370.75;5071464;28;20488;-54
2021/03/14 06:04:39;;;;;;;19.20;4.00;;;;;;;13.32;47.92;99364.00;5074193;28;20453;-50
2021/03/14 06:07:06;;;;;;;12.23;2.83;;;;;;;12.76;49.05;99384.19;5096832;28;20446;-54
2021/03/14 06:09:32;;;;;;;11.60;3.40;;;;;;;13.14;48.63;99389.72;5094912;28;20456;-55
2021/03/14 06:12:00;;;;;;;8.30;3.03;;;;;;;12.97;48.89;99398.19;5096551;28;20439;-56
2021/03/14 06:14:26;;;;;;;13.30;3.63;;;;;;;13.26;48.64;99400.19;5094773;28;20477;-54
2021/03/14 06:16:53;;;;;;;10.30;3.67;;;;;;;13.28;48.82;99408.00;5082579;28;20465;-51
2021/03/14 06:19:20;;;;;;;19.33;4.13;;;;;;;13.32;48.73;99418.38;5094842;28;20476;-50
2021/03/14 06:21:47;;;;;;;19.40;3.60;;;;;;;13.72;47.98;99422.19;5094456;28;20436;-50
2021/03/14 06:24:13;;;;;;;12.47;3.67;;;;;;;13.72;48.11;99425.66;5071733;28;20490;-55
2021/03/14 06:26:42;;;;;;;19.67;4.03;;;;;;;13.60;48.16;99425.56;5073526;28;20442;-52
2021/03/14 06:29:26;;;;;;;22.20;6.00;;;;;;;13.59;48.21;99440.25;5069394;28;20538;-56
2021/03/14 06:31:57;;;;;;;21.73;3.93;;;;;;;13.02;48.59;99447.44;5056180;28;20525;-55
2021/03/14 06:34:31;;;;;;;13.33;3.60;;;;;;;13.72;47.79;99461.97;5077143;28;20501;-56
2021/03/14 06:37:00;;;;;;;16.50;4.03;;;;;;;13.77;47.78;99459.38;5093666;28;20461;-56
2021/03/14 06:39:28;;;;;;;29.40;4.60;;;;;;;13.57;48.91;99467.88;5064182;28;20479;-52
2021/03/14 06:41:55;;;;;;;13.53;4.43;;;;;;;13.81;48.38;99475.84;5072952;28;20471;-54
2021/03/14 06:44:43;;;;;;;25.43;4.97;;;;;;;13.73;48.19;99484.41;5091070;28;20790;-52
2021/03/14 06:47:10;;;;;;;12.30;4.13;;;;;;;13.97;47.62;99487.19;5089480;28;20539;-53
2021/03/14 06:49:39;;;;;;;17.40;4.90;;;;;;;14.08;48.04;99484.66;5073253;28;20490;-50
2021/03/14 06:52:07;;;;;;;15.27;4.30;;;;;;;14.08;48.25;99500.22;5070987;28;20836;-49
2021/03/14 06:54:34;;;;;;;16.13;4.83;;;;;;;14.11;48.46;99511.50;5071618;28;20453;-54
2021/03/14 06:57:03;;;;;;;29.93;4.60;;;;;;;13.73;48.91;99525.00;5071756;28;20954;-56
2021/03/14 06:59:31;;;;;;;23.20;4.43;;;;;;;13.34;49.19;99522.88;5087303;28;20448;-56
2021/03/14 07:02:04;;;;;;;15.93;3.93;;;;;;;13.12;49.79;99531.28;5092900;28;20447;-52
2021/03/14 07:04:45;;;;;;;23.20;5.27;;;;;;;13.73;49.15;99536.25;5090822;28;20466;-55
2021/03/14 07:07:18;;;;;;;27.00;5.17;;;;;;;14.53;47.87;99540.34;5089158;28;20452;-50
2021/03/14 07:09:45;;;;;;;26.43;5.10;;;;;;;14.06;47.81;99559.00;5071961;28;20461;-50
2021/03/14 07:12:18;;;;;;;22.07;5.20;;;;;;;14.15;48.19;99559.94;5068270;28;20448;-52
2021/03/14 07:14:46;;;;;;;24.77;5.97;;;;;;;14.25;47.72;99566.06;5065964;28;20441;-48
2021/03/14 07:17:26;;;;;;;36.57;6.97;;;;;;;14.00;48.63;99572.81;5055172;28;20501;-54
2021/03/14 07:19:56;;;;;;;23.23;4.87;;;;;;;13.50;49.50;99580.09;5084305;28;20511;-50
2021/03/14 07:22:24;;;;;;;17.73;4.40;;;;;;;13.72;49.38;99593.25;5073405;28;20520;-50
2021/03/14 07:24:51;;;;;;;14.80;3.60;;;;;;;13.39;50.28;99597.19;5109485;28;20462;-50
2021/03/14 07:27:23;;;;;;;20.90;4.07;;;;;;;13.39;49.97;99613.63;5069494;28;20778;-50
2021/03/14 07:29:51;;;;;;;18.30;4.50;;;;;;;13.76;50.32;99610.59;5095210;28;20444;-54
2021/03/14 07:32:20;;;;;;;18.50;3.90;;;;;;;13.45;50.57;99623.16;5093272;28;20428;-53
2021/03/14 07:34:47;;;;;;;15.30;3.87;;;;;;;13.67;49.74;99629.50;5091946;28;20895;-54
2021/03/14 07:37:14;;;;;;;20.70;4.50;;;;;;;13.71;49.80;99636.47;5082575;28;20545;-52
2021/03/14 07:39:41;;;;;;;15.03;3.50;;;;;;;13.77;49.50;99644.31;5071460;28;20491;-53
2021/03/14 07:42:08;;;;;;;13.83;3.87;;;;;;;14.11;48.97;99651.53;5071623;28;20445;-52
2021/03/14 07:44:34;;;;;;;18.33;4.43;;;;;;;13.90;49.38;99637.53;5066733;28;20479;-55
2021/03/14 07:47:02;;;;;;;21.13;4.20;;;;;;;14.00;49.43;99648.00;5071493;28;20445;-55
2021/03/14 07:49:29;;;;;;;70.30;19.93;;;;;;;14.29;49.87;99643.09;5067946;28;20504;-53
2021/03/14 07:51:58;;;;;;;35.20;6.20;;;;;;;14.43;49.32;99656.19;5070969;28;20446;-52
2021/03/14 07:54:28;;;;;;;22.40;4.30;;;;;;;13.94;49.22;99660.91;5054382;28;20490;-58
2021/03/14 07:56:58;;;;;;;22.87;5.03;;;;;;;14.02;50.31;99669.63;5071542;28;20444;-54
2021/03/14 07:59:29;;;;;;;25.80;6.80;;;;;;;14.14;49.65;99674.94;5056050;28;20499;-58
2021/03/14 08:02:29;;;;;;;16.00;4.93;;;;;;;14.00;49.27;99679.97;5070840;28;20477;-55
2021/03/14 08:04:58;;;;;;;61.30;21.27;;;;;;;14.00;50.07;99686.91;5085343;28;20452;-54
2021/03/14 08:07:42;;;;;;;15.50;4.30;;;;;;;13.92;49.58;99686.81;5084734;28;20779;-51
2021/03/14 08:10:10;;;;;;;23.90;7.23;;;;;;;14.03;49.39;99686.91;5071235;28;20473;-50
2021/03/14 08:12:38;;;;;;;42.73;12.43;;;;;;;14.06;49.91;99693.84;5065284;28;20482;-54
2021/03/14 08:15:21;;;;;;;32.87;3.83;;;;;;;13.82;49.87;99706.56;5070878;28;20473;-53
2021/03/14 08:17:48;;;;;;;15.40;3.67;;;;;;;14.08;49.57;99706.00;5058828;28;20574;-56
2021/03/14 08:20:20;;;;;;;25.20;4.47;;;;;;;14.03;49.13;99720.63;5059661;28;20452;-52
2021/03/14 08:22:48;;;;;;;37.70;10.27;;;;;;;14.75;48.96;99710.94;5056269;28;20514;-54
2021/03/14 08:25:23;;;;;;;19.00;5.43;;;;;;;14.68;48.26;99723.84;5074556;28;20437;-52
2021/03/14 08:27:52;;;;;;;22.03;4.47;;;;;;;14.84;48.44;99726.59;5083465;28;20828;-54
2021/03/14 08:30:44;;;;;;;13.87;3.37;;;;;;;14.40;49.17;99736.56;5094461;28;20792;-50
2021/03/14 08:33:26;;;;;;;17.87;3.27;;;;;;;14.46;49.58;99740.94;5092849;28;20476;-53
2021/03/14 08:35:59;;;;;;;14.60;3.80;;;;;;;14.43;49.04;99736.63;5093479;28;20465;-50
2021/03/14 08:38:31;;;;;;;21.50;4.50;;;;;;;14.49;49.07;99750.50;5076062;28;20476;-53
2021/03/14 08:41:17;;;;;;;23.10;4.40;;;;;;;15.40;47.95;99755.56;5076783;28;20441;-52
2021/03/14 08:43:46;;;;;;;17.80;4.10;;;;;;;15.47;47.46;99759.94;5066525;28;20461;-54
2021/03/14 08:46:13;;;;;;;14.00;4.37;;;;;;;14.97;47.95;99767.38;5073477;28;20557;-56
2021/03/14 08:48:40;;;;;;;14.23;3.80;;;;;;;14.25;48.85;99772.75;5072542;28;20558;-50
2021/03/14 08:51:10;;;;;;;21.40;4.37;;;;;;;14.40;48.91;99778.09;5056612;28;20441;-51
2021/03/14 08:53:37;;;;;;;22.47;6.77;;;;;;;14.34;48.99;99778.03;5053252;28;20458;-56
2021/03/14 08:56:06;;;;;;;7.40;1.47;;;;;;;13.49;50.57;99785.63;5054259;28;20726;-51
2021/03/14 08:58:33;;;;;;;17.33;3.80;;;;;;;13.94;49.37;99787.97;5041737;28;20468;-51
2021/03/14 09:01:02;;;;;;;14.50;3.53;;;;;;;14.42;48.29;99794.53;5060798;28;20488;-51
2021/03/14 09:03:31;;;;;;;15.93;3.80;;;;;;;14.00;48.66;99788.03;5056181;28;20465;-56
2021/03/14 09:06:26;;;;;;;21.20;3.87;;;;;;;14.39;48.34;99801.44;5058973;28;20456;-57
2021/03/14 09:08:56;;;;;;;8.70;2.43;;;;;;;14.02;48.15;99794.09;5052539;28;20479;-51
2021/03/14 09:11:51;;;;;;;10.50;3.50;;;;;;;14.46;48.02;99808.41;5054326;28;20473;-53
2021/03/14 09:14:29;;;;;;;15.60;3.17;;;;;;;14.80;47.20;99808.81;5034461;28;20780;-56
2021/03/14 09:16:57;;;;;;;10.40;2.60;;;;;;;14.23;48.62;99822.03;5076645;28;20441;-54
2021/03/14 09:19:26;;;;;;;18.47;3.83;;;;;;;14.68;47.98;99817.28;5091441;28;20452;-53
2021/03/14 09:21:55;;;;;;;12.20;3.63;;;;;;;14.84;47.78;99826.16;5094681;28;20568;-56
2021/03/14 09:24:26;;;;;;;14.53;4.60;;;;;;;15.19;46.57;99827.31;5093509;28;20555;-50
2021/03/14 09:26:57;;;;;;;6.40;2.10;;;;;;;14.25;48.67;99829.84;5098151;28;20457;-50
2021/03/14 09:29:44;;;;;;;20.87;3.00;;;;;;;14.63;47.59;99826.78;5087037;28;20856;-51
2021/03/14 09:32:20;;;;;;;9.73;2.97;;;;;;;14.60;46.97;99839.72;5097785;28;20428;-53
2021/03/14 09:34:47;;;;;;;6.60;1.93;;;;;;;14.07;47.73;99857.28;5096778;28;20485;-53
2021/03/14 09:37:27;;;;;;;8.57;2.00;;;;;;;15.03;47.23;99841.88;5096766;28;20765;-57
2021/03/14 09:40:21;;;;;;;9.60;2.73;;;;;;;14.62;47.33;99855.31;5097770;28;20493;-52
2021/03/14 09:42:49;;;;;;;3.80;0.80;;;;;;;14.45;46.87;99864.66;5072276;28;20496;-52
2021/03/14 09:45:17;;;;;;;9.27;2.10;;;;;;;15.01;45.80;99855.75;5097626;28;20465;-51
2021/03/14 09:47:58;;;;;;;11.43;3.30;;;;;;;14.65;46.48;99870.91;5094547;28;20484;-54
2021/03/14 09:50:26;;;;;;;8.73;2.10;;;;;;;15.04;45.97;99876.53;5097655;28;20454;-54
2021/03/14 09:52:53;;;;;;;8.97;1.83;;;;;;;14.76;45.47;99863.28;5095121;28;20474;-49
2021/03/14 09:55:24;;;;;;;10.20;1.20;;;;;;;14.58;45.63;99882.97;5097586;28;20462;-52
2021/03/14 09:57:50;;;;;;;19.23;3.03;;;;;;;15.28;43.69;99877.63;5095310;28;20954;-53
2021/03/14 10:00:22;;;;;;;9.23;1.57;;;;;;;15.44;43.90;99889.84;5097559;28;20433;-52
2021/03/14 10:02:49;;;;;;;9.93;2.03;;;;;;;15.61;43.43;99886.53;5093163;28;20469;-52
2021/03/14 10:05:16;;;;;;;10.80;1.87;;;;;;;15.48;44.22;99894.22;5096944;28;20522;-54
2021/03/14 10:07:43;;;;;;;14.27;2.60;;;;;;;15.22;44.47;99900.09;5094049;28;20460;-52
2021/03/14 10:10:12;;;;;;;12.93;2.30;;;;;;;15.45;45.14;99899.41;5096988;28;20970;-54
2021/03/14 10:12:39;;;;;;;16.27;2.90;;;;;;;14.92;44.95;99901.53;5087376;28;20466;-55
2021/03/14 10:15:06;;;;;;;13.27;2.57;;;;;;;15.11;44.99;99891.31;5109915;28;20763;-56
2021/03/14 10:17:34;;;;;;;13.03;2.77;;;;;;;15.57;43.86;99900.34;5080977;28;20454;-54
2021/03/14 10:20:01;;;;;;;11.53;2.27;;;;;;;15.45;44.17;99906.34;5096377;28;20449;-49
2021/03/14 10:22:29;;;;;;;12.40;2.20;;;;;;;16.09;42.85;99909.41;5089256;28;20439;-57
2021/03/14 10:24:56;;;;;;;5.70;1.70;;;;;;;15.96;43.62;99906.75;5076306;28;20483;-52
2021/03/14 10:27:24;;;;;;;14.83;2.13;;;;;;;16.00;42.42;99905.88;5066281;28;20463;-55
2021/03/14 10:29:56;;;;;;;8.10;1.67;;;;;;;15.39;43.28;99913.22;5091082;28;20548;-56
2021/03/14 10:32:25;;;;;;;11.63;2.23;;;;;;;15.32;43.78;99920.94;5073802;28;20434;-53
2021/03/14 10:34:52;;;;;;;10.67;1.97;;;;;;;14.87;43.92;99923.13;5066566;28;20781;-50
2021/03/14 10:37:30;;;;;;;14.37;3.80;;;;;;;16.16;42.67;99919.84;5056380;28;20460;-53
2021/03/14 10:39:58;;;;;;;8.10;2.30;;;;;;;15.64;43.99;99926.41;5070075;28;20482;-51
2021/03/14 10:42:33;;;;;;;15.63;2.20;;;;;;;15.74;43.09;99929.09;5075945;28;20554;-53
2021/03/14 10:45:04;;;;;;;9.93;1.80;;;;;;;15.68;43.05;99924.72;5075826;28;20928;-49
2021/03/14 10:47:31;;;;;;;11.50;2.10;;;;;;;15.23;44.33;99921.75;5068194;28;20458;-53
2021/03/14 10:50:16;;;;;;;16.93;2.03;;;;;;;15.37;44.53;99927.94;5075823;28;20467;-53
2021/03/14 10:52:44;;;;;;;16.53;2.30;;;;;;;14.77;45.94;99946.38;5059669;28;20562;-53
2021/03/14 10:55:29;;;;;;;15.03;2.50;;;;;;;14.97;46.36;99946.59;5092034;28;20470;-49
2021/03/14 10:58:08;;;;;;;11.27;3.17;;;;;;;15.13;47.63;99957.16;5063642;28;20489;-49
2021/03/14 11:00:36;;;;;;;7.57;1.93;;;;;;;14.91;48.23;99961.25;5076273;28;20521;-54
2021/03/14 11:03:30;;;;;;;13.97;2.57;;;;;;;14.94;48.06;99951.78;5068396;28;20487;-47
2021/03/14 11:06:14;;;;;;;11.03;2.43;;;;;;;15.53;47.75;99951.44;5075259;28;20454;-51
2021/03/14 11:08:56;;;;;;;14.10;2.20;;;;;;;14.47;48.13;99959.81;5072413;28;20532;-47
2021/03/14 11:11:26;;;;;;;3.53;1.53;;;;;;;14.27;48.77;99953.53;5075971;28;20765;-52
2021/03/14 11:13:54;;;;;;;7.17;2.13;;;;;;;14.28;49.35;99954.38;5070311;28;20481;-55
2021/03/14 11:16:25;;;;;;;6.03;1.60;;;;;;;14.72;48.35;99961.00;5075616;28;20548;-52
2021/03/14 11:18:59;;;;;;;12.37;2.23;;;;;;;14.37;48.11;99964.91;5075969;27;20819;-52
2021/03/14 11:21:26;;;;;;;6.67;1.77;;;;;;;14.35;48.30;99971.78;5079297;28;20489;-53
2021/03/14 11:23:53;;;;;;;4.73;1.30;;;;;;;14.31;48.12;99964.81;5062420;28;20492;-53
2021/03/14 11:26:27;;;;;;;9.90;0.97;;;;;;;14.55;48.43;99966.84;5080640;28;20458;-48
2021/03/14 11:28:55;;;;;;;19.63;2.10;;;;;;;15.22;47.34;99975.44;5073872;28;20499;-50
2021/03/14 11:31:24;;;;;;;8.87;1.53;;;;;;;14.21;47.31;99968.13;5075799;28;20728;-47
2021/03/14 11:33:51;;;;;;;13.13;3.50;;;;;;;14.28;47.70;99967.34;5059501;28;20509;-49
2021/03/14 11:36:18;;;;;;;4.80;1.20;;;;;;;14.28;47.18;99975.13;5101878;28;20461;-57